createdAt,value
2023-03-16T00:00:00.366Z,8.68
2023-03-16T00:02:32.967Z,8.23
2023-03-16T00:05:03.571Z,7.25
2023-03-16T00:07:32.631Z,9.05
2023-03-16T00:10:01.523Z,8.68
2023-03-16T00:12:34.931Z,9.60
2023-03-16T00:15:07.659Z,8.98
2023-03-16T00:17:40.267Z,9.40
2023-03-16T00:20:12.969Z,9.13
2023-03-16T00:22:41.999Z,7.82
2023-03-16T00:25:16.276Z,9.05
2023-03-16T00:27:47.946Z,9.30
2023-03-16T00:30:16.581Z,8.93
2023-03-16T00:32:46.341Z,8.27
2023-03-16T00:35:19.359Z,8.43
2023-03-16T00:37:48.125Z,8.40
2023-03-16T00:40:17.494Z,8.82
2023-03-16T00:42:46.071Z,8.55
2023-03-16T00:45:14.563Z,9.18
2023-03-16T00:47:44.534Z,8.48
2023-03-16T00:50:22.436Z,8.77
2023-03-16T00:52:54.463Z,9.23
2023-03-16T00:55:23.005Z,9.07
2023-03-16T00:57:51.539Z,9.30
2023-03-16T01:00:21.640Z,8.77
2023-03-16T01:02:50.081Z,8.80
2023-03-16T01:05:23.320Z,8.27
2023-03-16T01:07:55.392Z,9.45
2023-03-16T01:10:34.816Z,8.32
2023-03-16T01:13:08.647Z,8.90
2023-03-16T01:15:39.156Z,8.90
2023-03-16T01:18:09.411Z,8.43
2023-03-16T01:20:39.366Z,9.38
2023-03-16T01:23:08.082Z,10.20
2023-03-16T01:25:36.935Z,9.95
2023-03-16T01:28:05.698Z,9.95
2023-03-16T01:30:40.507Z,10.85
2023-03-16T01:33:10.303Z,8.50
2023-03-16T01:35:40.045Z,10.75
2023-03-16T01:38:10.957Z,9.77
2023-03-16T01:40:40.511Z,10.18
2023-03-16T01:43:09.241Z,11.23
2023-03-16T01:46:18.431Z,11.25
2023-03-16T01:49:08.223Z,11.23
2023-03-16T01:51:46.284Z,11.98
2023-03-16T01:54:19.944Z,11.93
2023-03-16T01:56:55.507Z,11.90
2023-03-16T01:59:27.863Z,12.35
2023-03-16T02:01:56.838Z,10.90
2023-03-16T02:04:36.541Z,11.23
2023-03-16T02:07:09.056Z,11.40
2023-03-16T02:09:39.550Z,10.00
2023-03-16T02:12:09.173Z,12.10
2023-03-16T02:14:41.883Z,12.10
2023-03-16T02:17:10.738Z,12.73
2023-03-16T02:19:46.103Z,11.88
2023-03-16T02:22:16.524Z,12.30
2023-03-16T02:24:44.902Z,12.10
2023-03-16T02:27:15.200Z,11.38
2023-03-16T02:29:57.652Z,12.27
2023-03-16T02:32:35.724Z,12.00
2023-03-16T02:35:04.936Z,12.35
2023-03-16T02:37:34.551Z,11.27
2023-03-16T02:40:15.170Z,11.27
2023-03-16T02:42:44.429Z,11.52
2023-03-16T02:45:17.686Z,12.10
2023-03-16T02:47:48.128Z,11.10
2023-03-16T02:50:17.696Z,11.35
2023-03-16T02:52:49.028Z,11.35
2023-03-16T02:55:21.780Z,11.38
2023-03-16T02:57:50.284Z,10.95
2023-03-16T03:00:22.603Z,8.60
2023-03-16T03:02:53.275Z,10.05
2023-03-16T03:05:22.346Z,10.93
2023-03-16T03:07:51.405Z,10.80
2023-03-16T03:10:20.173Z,11.27
2023-03-16T03:12:50.324Z,11.32
2023-03-16T03:15:19.511Z,11.77
2023-03-16T03:17:59.718Z,10.90
2023-03-16T03:20:33.296Z,11.63
2023-03-16T03:23:05.476Z,11.35
2023-03-16T03:25:35.087Z,10.75
2023-03-16T03:28:05.841Z,11.60
2023-03-16T03:30:34.444Z,11.32
2023-03-16T03:33:04.530Z,11.95
2023-03-16T03:35:33.558Z,11.00
2023-03-16T03:38:03.129Z,11.88
2023-03-16T03:40:32.229Z,11.02
2023-03-16T03:43:04.938Z,11.73
2023-03-16T03:45:36.499Z,11.50
2023-03-16T03:48:07.201Z,11.60
2023-03-16T03:50:35.735Z,12.05
2023-03-16T03:53:19.770Z,11.82
2023-03-16T03:56:10.221Z,11.88
2023-03-16T03:58:39.869Z,11.48
2023-03-16T04:01:08.942Z,11.65
2023-03-16T04:03:39.280Z,11.73
2023-03-16T04:06:09.479Z,11.40
2023-03-16T04:08:38.352Z,10.68
2023-03-16T04:11:12.445Z,12.02
2023-03-16T04:13:43.728Z,11.65
2023-03-16T04:16:16.320Z,12.15
2023-03-16T04:18:49.144Z,12.37
2023-03-16T04:21:18.842Z,11.48
2023-03-16T04:23:49.200Z,11.60
2023-03-16T04:26:18.446Z,9.32
2023-03-16T04:28:49.351Z,10.95
2023-03-16T04:31:20.517Z,11.13
2023-03-16T04:33:54.871Z,10.80
2023-03-16T04:36:25.350Z,10.25
2023-03-16T04:38:56.814Z,12.07
2023-03-16T04:41:25.958Z,12.90
2023-03-16T04:44:02.252Z,12.30
2023-03-16T04:46:32.619Z,12.40
2023-03-16T04:49:09.229Z,11.68
2023-03-16T04:51:40.727Z,11.90
2023-03-16T04:54:13.464Z,12.80
2023-03-16T04:56:44.554Z,12.45
2023-03-16T04:59:27.064Z,11.88
2023-03-16T05:02:08.964Z,11.85
2023-03-16T05:04:39.703Z,11.07
2023-03-16T05:07:11.802Z,11.25
2023-03-16T05:09:43.927Z,11.65
2023-03-16T05:12:13.343Z,10.32
2023-03-16T05:14:42.102Z,12.10
2023-03-16T05:17:22.645Z,12.80
2023-03-16T05:19:53.145Z,11.95
2023-03-16T05:22:24.816Z,11.45
2023-03-16T05:25:15.103Z,10.93
2023-03-16T05:27:48.582Z,12.40
2023-03-16T05:30:24.020Z,12.85
2023-03-16T05:32:57.910Z,10.50
2023-03-16T05:35:29.365Z,11.20
2023-03-16T05:38:02.713Z,12.07
2023-03-16T05:40:33.324Z,11.75
2023-03-16T05:43:23.260Z,11.57
2023-03-16T05:45:54.804Z,11.88
2023-03-16T05:48:25.827Z,11.45
2023-03-16T05:51:02.740Z,10.13
2023-03-16T05:53:32.114Z,11.50
2023-03-16T05:56:09.282Z,11.27
2023-03-16T05:58:43.412Z,12.23
2023-03-16T06:01:13.536Z,11.63
2023-03-16T06:03:44.628Z,12.25
2023-03-16T06:06:21.878Z,11.57
2023-03-16T06:08:56.889Z,12.35
2023-03-16T06:11:27.700Z,12.65
2023-03-16T06:13:59.622Z,10.82
2023-03-16T06:16:31.219Z,12.50
2023-03-16T06:19:01.413Z,12.48
2023-03-16T06:21:35.471Z,12.07
2023-03-16T06:24:11.190Z,12.32
2023-03-16T06:26:40.256Z,12.27
2023-03-16T06:29:12.292Z,11.93
2023-03-16T06:31:42.292Z,13.85
2023-03-16T06:34:11.989Z,12.63
2023-03-16T06:36:43.148Z,11.60
2023-03-16T06:39:14.833Z,11.00
2023-03-16T06:41:49.702Z,12.13
2023-03-16T06:44:19.536Z,11.60
2023-03-16T06:47:00.797Z,10.95
2023-03-16T06:49:29.714Z,12.00
2023-03-16T06:52:00.886Z,11.20
2023-03-16T06:54:29.716Z,12.05
2023-03-16T06:56:59.434Z,10.13
2023-03-16T06:59:29.310Z,11.13
2023-03-16T07:01:59.094Z,12.23
2023-03-16T07:04:27.711Z,10.90
2023-03-16T07:06:56.332Z,11.93
2023-03-16T07:09:26.201Z,15.15
2023-03-16T07:11:54.532Z,12.55
2023-03-16T07:14:23.532Z,12.45
2023-03-16T07:16:54.103Z,11.40
2023-03-16T07:19:24.566Z,11.45
2023-03-16T07:21:54.048Z,11.75
2023-03-16T07:24:25.448Z,11.32
2023-03-16T07:26:54.139Z,11.77
2023-03-16T07:29:28.340Z,11.80
2023-03-16T07:31:58.162Z,12.20
2023-03-16T07:34:35.651Z,11.75
2023-03-16T07:37:04.163Z,12.05
2023-03-16T07:39:38.719Z,11.95
2023-03-16T07:42:12.506Z,12.07
2023-03-16T07:45:01.749Z,11.80
2023-03-16T07:47:31.788Z,11.43
2023-03-16T07:50:04.875Z,11.23
2023-03-16T07:52:37.543Z,11.45
2023-03-16T07:55:12.157Z,12.13
2023-03-16T07:57:42.326Z,12.10
2023-03-16T08:00:14.294Z,12.05
2023-03-16T08:02:45.309Z,12.25
2023-03-16T08:05:17.398Z,11.93
2023-03-16T08:07:53.094Z,11.30
2023-03-16T08:10:27.021Z,12.30
2023-03-16T08:13:06.160Z,12.05
2023-03-16T08:15:35.929Z,12.65
2023-03-16T08:18:21.502Z,12.35
2023-03-16T08:20:52.376Z,11.52
2023-03-16T08:23:21.369Z,11.77
2023-03-16T08:25:53.621Z,12.45
2023-03-16T08:28:26.202Z,12.55
2023-03-16T08:30:58.643Z,12.23
2023-03-16T08:33:40.019Z,11.52
2023-03-16T08:36:11.847Z,12.50
2023-03-16T08:38:45.395Z,12.68
2023-03-16T08:41:19.082Z,12.10
2023-03-16T08:43:51.367Z,12.20
2023-03-16T08:46:21.915Z,11.88
2023-03-16T08:48:57.041Z,12.85
2023-03-16T08:51:31.349Z,12.60
2023-03-16T08:54:00.285Z,12.95
2023-03-16T08:56:36.544Z,12.40
2023-03-16T08:59:10.479Z,12.55
2023-03-16T09:01:45.892Z,13.38
2023-03-16T09:04:15.254Z,12.35
2023-03-16T09:06:44.308Z,13.52
2023-03-16T09:09:12.681Z,13.02
2023-03-16T09:11:42.742Z,12.50
2023-03-16T09:14:11.593Z,13.52
2023-03-16T09:16:40.292Z,13.13
2023-03-16T09:19:12.023Z,13.07
2023-03-16T09:21:41.459Z,13.25
2023-03-16T09:24:15.082Z,13.52
2023-03-16T09:26:45.816Z,14.07
2023-03-16T09:29:14.827Z,13.43
2023-03-16T09:31:43.503Z,13.82
2023-03-16T09:34:11.996Z,13.30
2023-03-16T09:36:43.586Z,14.05
2023-03-16T09:39:13.550Z,13.10
2023-03-16T09:41:49.905Z,18.27
2023-03-16T09:44:29.385Z,14.82
2023-03-16T09:47:00.469Z,13.82
2023-03-16T09:49:32.672Z,14.10
2023-03-16T09:52:08.099Z,13.95
2023-03-16T09:54:43.306Z,13.52
2023-03-16T09:57:26.006Z,14.07
2023-03-16T09:59:55.191Z,14.02
2023-03-16T10:02:40.671Z,14.18
2023-03-16T10:05:11.155Z,14.13
2023-03-16T10:07:48.338Z,14.32
2023-03-16T10:10:24.037Z,14.05
2023-03-16T10:12:54.957Z,14.07
2023-03-16T10:15:27.488Z,14.15
2023-03-16T10:18:01.367Z,15.07
2023-03-16T10:20:33.503Z,13.95
2023-03-16T10:23:09.692Z,14.38
2023-03-16T10:25:46.236Z,13.85
2023-03-16T10:28:18.377Z,14.13
2023-03-16T10:30:51.505Z,13.82
2023-03-16T10:33:28.135Z,15.82
2023-03-16T10:36:01.646Z,13.32
2023-03-16T10:38:33.245Z,13.00
2023-03-16T10:41:02.514Z,11.98
2023-03-16T10:43:32.454Z,12.65
2023-03-16T10:46:02.878Z,14.23
2023-03-16T10:48:35.004Z,13.35
2023-03-16T10:51:07.130Z,14.18
2023-03-16T10:53:37.432Z,14.57
2023-03-16T10:56:13.261Z,13.18
2023-03-16T10:58:46.493Z,14.75
2023-03-16T11:01:20.877Z,15.07
2023-03-16T11:03:53.464Z,14.23
2023-03-16T11:06:25.015Z,13.88
2023-03-16T11:08:55.209Z,15.05
2023-03-16T11:11:30.262Z,15.23
2023-03-16T11:14:01.601Z,16.48
2023-03-16T11:16:33.220Z,15.07
2023-03-16T11:19:05.689Z,15.93
2023-03-16T11:21:41.231Z,15.05
2023-03-16T11:24:17.285Z,15.57
2023-03-16T11:26:48.891Z,15.15
2023-03-16T11:29:22.258Z,15.35
2023-03-16T11:31:53.594Z,15.27
2023-03-16T11:34:25.881Z,14.57
2023-03-16T11:36:56.229Z,15.10
2023-03-16T11:39:40.671Z,15.43
2023-03-16T11:42:25.532Z,14.80
2023-03-16T11:44:59.529Z,14.85
2023-03-16T11:47:44.461Z,14.02
2023-03-16T11:50:16.259Z,13.70
2023-03-16T11:52:50.888Z,15.07
2023-03-16T11:55:29.067Z,15.05
2023-03-16T11:58:05.895Z,14.43
2023-03-16T12:00:44.756Z,14.07
2023-03-16T12:03:38.064Z,14.43
2023-03-16T12:06:23.384Z,14.07
2023-03-16T12:09:08.459Z,15.00
2023-03-16T12:11:41.623Z,15.05
2023-03-16T12:14:16.718Z,14.07
2023-03-16T12:19:23.263Z,13.35
2023-03-16T12:22:01.411Z,15.13
2023-03-16T12:24:33.303Z,14.68
2023-03-16T12:27:02.550Z,15.45
2023-03-16T12:29:36.958Z,15.63
2023-03-16T12:32:10.678Z,17.48
2023-03-16T12:34:43.769Z,16.70
2023-03-16T12:37:20.596Z,16.05
2023-03-16T12:40:09.383Z,17.15
2023-03-16T12:43:01.920Z,17.40
2023-03-16T12:45:35.472Z,18.48
2023-03-16T12:48:12.791Z,17.95
2023-03-16T12:50:52.693Z,17.92
2023-03-16T12:53:40.500Z,19.25
2023-03-16T12:56:12.717Z,19.65
2023-03-16T12:58:49.457Z,20.10
2023-03-16T13:01:20.042Z,20.27
2023-03-16T13:03:51.429Z,20.63
2023-03-16T13:06:22.481Z,22.38
2023-03-16T13:08:54.510Z,20.30
2023-03-16T13:11:23.084Z,21.50
2023-03-16T13:13:53.777Z,21.48
2023-03-16T13:16:28.691Z,23.02
2023-03-16T13:21:39.457Z,21.58
2023-03-16T13:24:18.235Z,20.55
2023-03-16T13:26:48.245Z,20.85
2023-03-16T13:29:23.902Z,23.02
2023-03-16T13:31:53.952Z,22.48
2023-03-16T13:34:25.559Z,21.45
2023-03-16T13:36:57.071Z,21.65
2023-03-16T13:39:28.544Z,22.45
2023-03-16T13:42:03.442Z,21.40
2023-03-16T13:44:33.026Z,21.35
2023-03-16T13:47:07.210Z,22.60
2023-03-16T13:49:45.237Z,22.45
2023-03-16T13:52:16.973Z,26.23
2023-03-16T13:54:45.427Z,50.38
2023-03-16T13:57:14.419Z,23.00
2023-03-16T13:59:43.814Z,24.58
2023-03-16T14:02:19.278Z,21.00
2023-03-16T14:04:49.376Z,21.10
2023-03-16T14:07:19.757Z,19.15
2023-03-16T14:09:49.954Z,17.85
2023-03-16T14:12:20.471Z,20.77
2023-03-16T14:14:51.411Z,17.48
2023-03-16T14:17:22.288Z,17.45
2023-03-16T14:19:58.725Z,17.40
2023-03-16T14:22:34.112Z,17.45
2023-03-16T14:25:05.621Z,14.10
2023-03-16T14:27:47.659Z,16.45
2023-03-16T14:30:18.526Z,14.75
2023-03-16T14:32:57.907Z,15.00
2023-03-16T14:35:30.713Z,15.40
2023-03-16T14:38:09.944Z,15.23
2023-03-16T14:40:40.352Z,13.27
2023-03-16T14:43:10.956Z,14.63
2023-03-16T14:45:39.571Z,14.30
2023-03-16T14:48:17.088Z,14.80
2023-03-16T14:50:55.770Z,13.23
2023-03-16T14:53:24.797Z,13.23
2023-03-16T14:55:53.676Z,14.25
2023-03-16T14:58:22.439Z,13.98
2023-03-16T15:00:53.699Z,13.25
2023-03-16T15:03:25.133Z,14.35
2023-03-16T15:05:56.043Z,12.88
2023-03-16T15:08:31.597Z,13.15
2023-03-16T15:11:03.233Z,12.63
2023-03-16T15:13:53.859Z,12.57
2023-03-16T15:16:23.532Z,12.35
2023-03-16T15:18:52.329Z,11.18
2023-03-16T15:21:24.857Z,7.97
2023-03-16T15:23:53.492Z,12.75
2023-03-16T15:26:26.330Z,13.32
2023-03-16T15:28:55.161Z,13.50
2023-03-16T15:31:23.836Z,13.18
2023-03-16T15:33:52.583Z,14.43
2023-03-16T15:36:24.389Z,13.27
2023-03-16T15:38:54.915Z,13.75
2023-03-16T15:41:24.962Z,14.50
2023-03-16T15:44:00.760Z,14.35
2023-03-16T15:46:29.363Z,13.43
2023-03-16T15:48:57.763Z,13.25
2023-03-16T15:51:29.100Z,14.88
2023-03-16T15:53:59.661Z,12.95
2023-03-16T15:56:30.494Z,14.80
2023-03-16T15:59:01.241Z,14.32
2023-03-16T16:01:34.984Z,12.93
2023-03-16T16:04:03.647Z,9.93
2023-03-16T16:06:33.425Z,14.02
2023-03-16T16:09:02.305Z,13.50
2023-03-16T16:11:30.856Z,12.27
2023-03-16T16:13:59.608Z,13.75
2023-03-16T16:16:29.852Z,11.88
2023-03-16T16:18:58.373Z,11.38
2023-03-16T16:21:29.209Z,12.13
2023-03-16T16:23:59.367Z,12.00
2023-03-16T16:26:46.997Z,11.10
2023-03-16T16:29:17.496Z,10.35
2023-03-16T16:31:46.185Z,10.88
2023-03-16T16:34:15.613Z,12.90
2023-03-16T16:36:44.041Z,13.25
2023-03-16T16:39:13.947Z,13.15
2023-03-16T16:41:44.365Z,12.02
2023-03-16T16:44:17.271Z,11.60
2023-03-16T16:46:46.037Z,10.93
2023-03-16T16:49:17.954Z,11.95
2023-03-16T16:51:46.616Z,11.18
2023-03-16T16:54:18.482Z,12.10
2023-03-16T16:56:47.850Z,12.75
2023-03-16T16:59:18.843Z,12.35
2023-03-16T17:01:50.266Z,11.13
2023-03-16T17:04:23.365Z,11.27
2023-03-16T17:06:55.521Z,10.07
2023-03-16T17:09:29.092Z,11.88
2023-03-16T17:11:59.834Z,13.20
2023-03-16T17:14:28.889Z,9.20
2023-03-16T17:16:59.985Z,11.05
2023-03-16T17:19:29.597Z,12.18
2023-03-16T17:21:58.814Z,9.13
2023-03-16T17:24:29.049Z,11.80
2023-03-16T17:26:59.175Z,11.75
2023-03-16T17:29:30.081Z,11.07
2023-03-16T17:31:58.745Z,10.18
2023-03-16T17:34:29.005Z,9.50
2023-03-16T17:36:58.107Z,9.63
2023-03-16T17:39:29.195Z,11.82
2023-03-16T17:41:59.335Z,9.63
2023-03-16T17:44:31.328Z,12.30
2023-03-16T17:46:59.926Z,9.20
2023-03-16T17:49:30.809Z,12.18
2023-03-16T17:51:59.753Z,11.13
2023-03-16T17:54:29.899Z,8.85
2023-03-16T17:56:58.376Z,9.80
2023-03-16T17:59:27.592Z,10.48
2023-03-16T18:01:56.206Z,9.25
2023-03-16T18:04:27.836Z,10.25
2023-03-16T18:06:56.758Z,11.68
2023-03-16T18:09:25.086Z,9.60
2023-03-16T18:11:55.005Z,10.63
2023-03-16T18:14:26.811Z,9.25
2023-03-16T18:16:56.247Z,9.32
2023-03-16T18:19:26.892Z,8.27
2023-03-16T18:21:55.295Z,8.40
2023-03-16T18:24:26.789Z,8.15
2023-03-16T18:26:57.980Z,6.95
2023-03-16T18:29:26.709Z,7.63
2023-03-16T18:31:55.924Z,7.38
2023-03-16T18:34:25.444Z,6.47
2023-03-16T18:36:55.023Z,7.30
2023-03-16T18:39:24.082Z,7.28
2023-03-16T18:41:53.075Z,7.13
2023-03-16T18:44:24.349Z,7.28
2023-03-16T18:46:55.565Z,7.47
2023-03-16T18:49:27.937Z,5.68
2023-03-16T18:51:57.152Z,7.15
2023-03-16T18:54:27.772Z,5.70
2023-03-16T18:56:58.857Z,6.93
2023-03-16T18:59:28.978Z,6.25
2023-03-16T19:01:58.178Z,6.28
2023-03-16T19:04:29.398Z,7.13
2023-03-16T19:06:58.183Z,5.85
2023-03-16T19:09:28.770Z,5.68
2023-03-16T19:11:57.422Z,6.03
2023-03-16T19:14:27.364Z,6.63
2023-03-16T19:16:57.587Z,6.10
2023-03-16T19:19:26.362Z,5.85
2023-03-16T19:21:57.591Z,6.82
2023-03-16T19:24:30.341Z,6.90
2023-03-16T19:26:59.249Z,5.18
2023-03-16T19:29:31.783Z,5.57
2023-03-16T19:32:02.548Z,5.53
2023-03-16T19:34:31.556Z,5.70
2023-03-16T19:37:00.092Z,4.72
2023-03-16T19:39:28.531Z,3.33
2023-03-16T19:41:59.030Z,3.42
2023-03-16T19:44:29.066Z,4.50
2023-03-16T19:46:59.251Z,4.32
2023-03-16T19:49:29.520Z,5.32
2023-03-16T19:51:58.303Z,5.30
2023-03-16T19:54:28.625Z,4.78
2023-03-16T19:56:57.845Z,4.05
2023-03-16T19:59:29.746Z,5.05
2023-03-16T20:01:58.336Z,5.22
2023-03-16T20:04:29.129Z,3.80
2023-03-16T20:06:57.682Z,4.65
2023-03-16T20:09:26.397Z,4.57
2023-03-16T20:11:55.007Z,4.55
2023-03-16T20:14:28.794Z,5.30
2023-03-16T20:16:57.368Z,4.30
2023-03-16T20:19:25.882Z,4.60
2023-03-16T20:21:56.281Z,3.00
2023-03-16T20:24:24.849Z,3.72
2023-03-16T20:26:54.129Z,4.90
2023-03-16T20:29:25.370Z,4.22
2023-03-16T20:31:53.871Z,4.50
2023-03-16T20:34:24.179Z,4.32
2023-03-16T20:36:53.230Z,4.40
2023-03-16T20:39:22.892Z,4.00
2023-03-16T20:41:52.190Z,4.25
2023-03-16T20:44:22.242Z,4.20
2023-03-16T20:46:51.058Z,4.40
2023-03-16T20:49:31.429Z,4.50
2023-03-16T20:52:00.087Z,4.47
2023-03-16T20:54:29.894Z,3.47
2023-03-16T20:56:58.864Z,3.75
2023-03-16T20:59:28.391Z,3.95
2023-03-16T21:02:01.260Z,4.13
2023-03-16T21:04:30.165Z,4.10
2023-03-16T21:06:58.663Z,4.00
2023-03-16T21:09:27.851Z,3.85
2023-03-16T21:11:57.713Z,3.55
2023-03-16T21:14:26.376Z,3.35
2023-03-16T21:16:55.386Z,3.40
2023-03-16T21:19:25.011Z,3.70
2023-03-16T21:21:53.298Z,3.70
2023-03-16T21:24:22.716Z,4.35
2023-03-16T21:26:51.268Z,3.88
2023-03-16T21:29:24.550Z,3.72
2023-03-16T21:31:53.005Z,3.28
2023-03-16T21:34:25.159Z,3.90
2023-03-16T21:36:55.398Z,4.07
2023-03-16T21:39:25.372Z,2.95
2023-03-16T21:41:54.405Z,3.22
2023-03-16T21:44:24.423Z,3.38
2023-03-16T21:46:53.890Z,3.42
2023-03-16T21:49:22.439Z,3.35
2023-03-16T21:51:51.933Z,2.80
2023-03-16T21:54:20.443Z,2.90
2023-03-16T21:56:49.011Z,2.80
2023-03-16T21:59:17.579Z,2.85
2023-03-16T22:02:01.311Z,2.80
2023-03-16T22:04:30.872Z,3.00
2023-03-16T22:06:59.400Z,3.03
2023-03-16T22:09:30.371Z,3.10
2023-03-16T22:11:59.357Z,2.97
2023-03-16T22:14:28.307Z,2.38
2023-03-16T22:16:58.251Z,3.05
2023-03-16T22:19:27.395Z,2.45
2023-03-16T22:21:56.969Z,3.22
2023-03-16T22:24:27.577Z,3.10
2023-03-16T22:26:57.014Z,2.47
2023-03-16T22:29:26.660Z,2.53
2023-03-16T22:32:03.067Z,2.47
2023-03-16T22:34:33.979Z,2.05
2023-03-16T22:37:02.884Z,2.55
2023-03-16T22:39:32.823Z,2.50
2023-03-16T22:42:01.517Z,2.22
2023-03-16T22:44:29.981Z,2.65
2023-03-16T22:47:00.504Z,2.67
2023-03-16T22:49:29.552Z,1.90
2023-03-16T22:51:58.912Z,1.77
2023-03-16T22:54:28.932Z,2.53
2023-03-16T22:56:57.747Z,2.20
2023-03-16T22:59:26.680Z,2.53
2023-03-16T23:01:55.115Z,2.22
2023-03-16T23:04:30.079Z,2.15
2023-03-16T23:06:59.124Z,2.40
2023-03-16T23:09:27.572Z,2.35
2023-03-16T23:11:57.616Z,1.90
2023-03-16T23:14:29.185Z,1.70
2023-03-16T23:16:57.921Z,1.92
2023-03-16T23:19:30.042Z,2.53
2023-03-16T23:22:01.099Z,1.88
2023-03-16T23:24:29.558Z,2.50
2023-03-16T23:26:58.251Z,2.40
2023-03-16T23:29:27.356Z,1.90
2023-03-16T23:31:56.616Z,2.03
2023-03-16T23:34:28.054Z,2.22
2023-03-16T23:36:56.876Z,1.90
2023-03-16T23:39:26.153Z,1.65
2023-03-16T23:41:54.535Z,2.25
2023-03-16T23:44:25.068Z,2.00
2023-03-16T23:46:53.950Z,2.05
2023-03-16T23:49:23.811Z,2.10
2023-03-16T23:51:54.065Z,2.35
2023-03-16T23:54:24.348Z,1.90
2023-03-16T23:56:54.949Z,1.70
2023-03-16T23:59:23.898Z,1.52
